createdAt,value
2018-08-03T00:02:10.855Z,26.02
2018-08-03T00:05:35.547Z,25.85
2018-08-03T00:09:02.484Z,25.71
2018-08-03T00:12:27.102Z,25.57
2018-08-03T00:15:51.579Z,25.48
2018-08-03T00:19:16.044Z,25.55
2018-08-03T00:22:40.491Z,25.45
2018-08-03T00:26:04.971Z,25.43
2018-08-03T00:29:29.411Z,25.38
2018-08-03T00:32:53.895Z,25.21
2018-08-03T00:36:18.366Z,25.25
2018-08-03T00:39:42.814Z,25.25
2018-08-03T00:43:07.423Z,25.19
2018-08-03T00:46:31.860Z,25.14
2018-08-03T00:49:56.364Z,25.14
2018-08-03T00:53:20.499Z,25.05
2018-08-03T00:56:44.993Z,24.76
2018-08-03T01:00:09.409Z,24.85
2018-08-03T01:03:33.887Z,24.72
2018-08-03T01:06:58.402Z,24.67
2018-08-03T01:10:22.832Z,24.64
2018-08-03T01:13:47.278Z,24.55
2018-08-03T01:17:11.698Z,24.62
2018-08-03T01:20:36.124Z,24.58
2018-08-03T01:24:00.606Z,24.68
2018-08-03T01:27:25.058Z,24.57
2018-08-03T01:30:49.696Z,24.49
2018-08-03T01:34:14.208Z,24.47
2018-08-03T01:37:38.671Z,24.52
2018-08-03T01:41:03.345Z,24.35
2018-08-03T01:44:27.814Z,24.25
2018-08-03T01:47:52.266Z,24.34
2018-08-03T01:51:16.424Z,24.22
2018-08-03T01:54:40.851Z,24.33
2018-08-03T01:58:05.295Z,24.33
2018-08-03T02:01:29.726Z,24.26
2018-08-03T02:04:54.163Z,24.24
2018-08-03T02:08:18.799Z,24.23
2018-08-03T02:11:43.256Z,24.17
2018-08-03T02:15:08.210Z,24.16
2018-08-03T02:18:32.722Z,24.14
2018-08-03T02:21:57.262Z,24.02
2018-08-03T02:25:21.665Z,24.07
2018-08-03T02:28:46.080Z,24.03
2018-08-03T02:32:11.134Z,23.95
2018-08-03T02:35:35.595Z,23.80
2018-08-03T02:39:00.027Z,23.74
2018-08-03T02:42:24.481Z,23.82
2018-08-03T02:45:48.953Z,23.71
2018-08-03T02:49:13.416Z,23.77
2018-08-03T02:52:37.871Z,23.68
2018-08-03T02:56:02.314Z,23.59
2018-08-03T02:59:26.749Z,23.57
2018-08-03T03:02:51.189Z,23.69
2018-08-03T03:06:15.609Z,23.52
2018-08-03T03:09:40.061Z,23.29
2018-08-03T03:13:04.475Z,23.37
2018-08-03T03:16:28.876Z,23.33
2018-08-03T03:19:53.451Z,23.20
2018-08-03T03:23:17.911Z,23.22
2018-08-03T03:26:42.743Z,23.08
2018-08-03T03:30:08.845Z,23.14
2018-08-03T03:33:33.316Z,23.17
2018-08-03T03:36:57.743Z,22.98
2018-08-03T03:40:22.302Z,22.91
2018-08-03T03:43:46.716Z,22.89
2018-08-03T03:47:11.162Z,22.91
2018-08-03T03:50:35.669Z,22.92
2018-08-03T03:54:00.260Z,22.74
2018-08-03T03:57:24.692Z,22.72
2018-08-03T04:00:49.329Z,22.57
2018-08-03T04:04:13.745Z,22.70
2018-08-03T04:07:38.175Z,22.79
2018-08-03T04:11:02.773Z,22.78
2018-08-03T04:14:27.147Z,22.73
2018-08-03T04:17:51.556Z,22.72
2018-08-03T04:21:15.976Z,22.52
2018-08-03T04:24:40.400Z,22.62
2018-08-03T04:28:04.889Z,22.73
2018-08-03T04:31:29.317Z,22.67
2018-08-03T04:34:53.729Z,22.70
2018-08-03T04:38:18.161Z,22.69
2018-08-03T04:41:42.570Z,22.73
2018-08-03T04:45:07.058Z,22.89
2018-08-03T04:48:31.547Z,22.85
2018-08-03T04:51:55.955Z,22.82
2018-08-03T04:55:20.386Z,22.85
2018-08-03T04:58:44.833Z,22.86
2018-08-03T05:02:10.756Z,22.87
2018-08-03T05:05:35.265Z,22.95
2018-08-03T05:08:59.704Z,23.16
2018-08-03T05:12:24.171Z,23.23
2018-08-03T05:15:48.693Z,23.12
2018-08-03T05:19:13.102Z,23.34
2018-08-03T05:22:37.604Z,23.38
2018-08-03T05:26:02.064Z,23.55
2018-08-03T05:29:26.458Z,23.69
2018-08-03T05:32:50.877Z,23.79
2018-08-03T05:36:15.447Z,23.76
2018-08-03T05:39:39.870Z,23.87
2018-08-03T05:43:04.335Z,24.15
2018-08-03T05:46:28.767Z,24.17
2018-08-03T05:49:53.298Z,24.30
2018-08-03T05:53:17.710Z,24.39
2018-08-03T05:56:42.147Z,24.48
2018-08-03T06:00:07.195Z,24.60
2018-08-03T06:03:31.627Z,24.68
2018-08-03T06:06:56.041Z,24.81
2018-08-03T06:10:20.496Z,25.01
2018-08-03T06:13:44.950Z,25.11
2018-08-03T06:17:09.450Z,25.27
2018-08-03T06:20:33.885Z,25.33
2018-08-03T06:23:58.386Z,25.53
2018-08-03T06:27:22.952Z,25.62
2018-08-03T06:30:47.492Z,25.76
2018-08-03T06:34:11.987Z,25.90
2018-08-03T06:37:36.810Z,26.02
2018-08-03T06:41:01.320Z,26.12
2018-08-03T06:44:25.710Z,26.27
2018-08-03T06:47:50.104Z,26.38
2018-08-03T06:51:14.515Z,26.40
2018-08-03T06:54:38.920Z,26.59
2018-08-03T06:58:03.371Z,26.66
2018-08-03T07:01:27.799Z,26.78
2018-08-03T07:04:52.386Z,26.92
2018-08-03T07:08:16.817Z,27.04
2018-08-03T07:11:41.330Z,27.20
2018-08-03T07:15:06.137Z,27.40
2018-08-03T07:18:30.602Z,27.44
2018-08-03T07:21:55.079Z,27.51
2018-08-03T07:25:21.302Z,27.51
2018-08-03T07:28:45.900Z,27.63
2018-08-03T07:32:10.317Z,27.76
2018-08-03T07:35:34.754Z,27.98
2018-08-03T07:38:59.192Z,27.99
2018-08-03T07:42:23.687Z,28.10
2018-08-03T07:45:48.206Z,28.17
2018-08-03T07:49:12.645Z,28.33
2018-08-03T07:52:37.199Z,28.47
2018-08-03T07:56:01.507Z,28.71
2018-08-03T07:59:25.953Z,28.94
2018-08-03T08:02:50.560Z,29.04
2018-08-03T08:06:15.003Z,29.15
2018-08-03T08:09:39.559Z,29.13
2018-08-03T08:13:03.933Z,29.28
2018-08-03T08:16:28.380Z,29.41
2018-08-03T08:19:52.848Z,29.56
2018-08-03T08:23:17.329Z,29.76
2018-08-03T08:26:41.823Z,29.84
2018-08-03T08:30:07.230Z,29.92
2018-08-03T08:33:31.681Z,30.15
2018-08-03T08:36:56.176Z,30.27
2018-08-03T08:40:20.576Z,30.40
2018-08-03T08:43:45.060Z,30.47
2018-08-03T08:47:10.006Z,30.59
2018-08-03T08:50:34.467Z,30.84
2018-08-03T08:53:58.896Z,30.97
2018-08-03T08:57:23.410Z,31.25
2018-08-03T09:00:47.864Z,31.42
2018-08-03T09:04:12.359Z,31.70
2018-08-03T09:07:36.875Z,31.80
2018-08-03T09:11:01.261Z,31.84
2018-08-03T09:14:25.798Z,32.03
2018-08-03T09:17:50.245Z,32.29
2018-08-03T09:21:14.792Z,32.36
2018-08-03T09:24:39.298Z,32.52
2018-08-03T09:28:03.664Z,32.99
2018-08-03T09:31:28.139Z,33.03
2018-08-03T09:34:52.628Z,33.24
2018-08-03T09:38:17.090Z,33.42
2018-08-03T09:41:41.535Z,33.92
2018-08-03T09:45:06.460Z,34.06
2018-08-03T09:48:30.999Z,33.91
2018-08-03T09:51:55.476Z,34.32
2018-08-03T09:55:19.936Z,34.40
2018-08-03T09:58:44.418Z,34.70
2018-08-03T10:02:08.928Z,35.06
2018-08-03T10:05:33.428Z,35.30
2018-08-03T10:08:57.851Z,35.57
2018-08-03T10:12:22.263Z,36.03
2018-08-03T10:15:46.689Z,36.32
2018-08-03T10:19:11.127Z,37.04
2018-08-03T10:22:35.556Z,37.42
2018-08-03T10:25:59.951Z,38.07
2018-08-03T10:29:24.420Z,38.57
2018-08-03T10:32:49.207Z,39.03
2018-08-03T10:36:20.345Z,40.52
2018-08-03T10:39:44.887Z,41.68
2018-08-03T10:43:09.339Z,42.91
2018-08-03T10:46:33.726Z,44.52
2018-08-03T10:49:58.459Z,45.84
2018-08-03T10:53:22.919Z,45.73
2018-08-03T10:56:47.633Z,46.09
2018-08-03T11:00:22.154Z,45.60
2018-08-03T11:03:46.605Z,46.22
2018-08-03T11:07:11.016Z,46.68
2018-08-03T11:10:36.471Z,45.34
2018-08-03T11:14:01.019Z,43.52
2018-08-03T11:17:25.407Z,42.61
2018-08-03T11:20:49.918Z,41.61
2018-08-03T11:24:15.997Z,40.93
2018-08-03T11:27:40.596Z,41.15
2018-08-03T11:31:06.558Z,40.39
2018-08-03T11:34:31.767Z,40.48
2018-08-03T11:37:56.716Z,40.60
2018-08-03T11:41:22.894Z,40.90
2018-08-03T11:44:48.463Z,40.74
2018-08-03T11:48:12.844Z,40.80
2018-08-03T11:51:38.016Z,40.74
2018-08-03T11:55:03.300Z,41.34
2018-08-03T11:58:27.916Z,41.57
2018-08-03T12:01:52.396Z,41.21
2018-08-03T12:05:16.832Z,41.68
2018-08-03T12:08:41.253Z,41.16
2018-08-03T12:12:05.714Z,42.30
2018-08-03T12:15:30.308Z,41.55
2018-08-03T12:18:54.747Z,41.56
2018-08-03T12:22:19.848Z,40.63
2018-08-03T12:25:44.510Z,40.57
2018-08-03T12:29:08.909Z,41.23
2018-08-03T12:32:33.368Z,40.36
2018-08-03T12:35:57.780Z,40.63
2018-08-03T12:39:22.307Z,40.96
2018-08-03T12:42:46.786Z,42.06
2018-08-03T12:46:11.219Z,42.90
2018-08-03T12:49:35.724Z,43.22
2018-08-03T12:53:00.213Z,44.16
2018-08-03T12:56:24.900Z,44.78
2018-08-03T12:59:49.342Z,44.85
2018-08-03T13:03:13.755Z,45.84
2018-08-03T13:06:39.645Z,46.24
2018-08-03T13:10:03.828Z,46.98
2018-08-03T13:13:28.199Z,48.10
2018-08-03T13:16:52.621Z,49.88
2018-08-03T13:20:16.743Z,51.11
2018-08-03T13:23:53.360Z,50.22
2018-08-03T13:27:18.205Z,47.56
2018-08-03T13:30:42.630Z,44.79
2018-08-03T13:34:07.209Z,42.91
2018-08-03T13:37:31.667Z,42.20
2018-08-03T13:40:56.098Z,41.72
2018-08-03T13:44:20.506Z,41.72
2018-08-03T13:47:44.928Z,41.55
2018-08-03T13:51:09.353Z,43.92
2018-08-03T13:54:33.793Z,47.29
2018-08-03T13:57:58.290Z,48.10
2018-08-03T14:01:44.394Z,45.46
2018-08-03T14:05:10.238Z,46.21
2018-08-03T14:08:35.023Z,47.84
2018-08-03T14:11:59.467Z,48.48
2018-08-03T14:15:23.671Z,47.30
2018-08-03T14:18:48.324Z,47.07
2018-08-03T14:22:12.925Z,49.62
2018-08-03T14:25:37.241Z,49.21
2018-08-03T14:29:01.641Z,50.46
2018-08-03T14:32:26.077Z,50.26
2018-08-03T14:35:50.507Z,51.45
2018-08-03T14:39:14.937Z,50.89
2018-08-03T14:42:39.354Z,51.57
2018-08-03T14:46:03.770Z,51.04
2018-08-03T14:49:28.160Z,50.34
2018-08-03T14:52:52.636Z,50.75
2018-08-03T14:56:17.068Z,49.96
2018-08-03T14:59:41.467Z,51.40
2018-08-03T15:03:05.937Z,51.79
2018-08-03T15:06:30.360Z,52.31
2018-08-03T15:09:55.462Z,52.23
2018-08-03T15:13:19.875Z,51.76
2018-08-03T15:16:44.288Z,51.80
2018-08-03T15:20:09.658Z,51.31
2018-08-03T15:23:34.068Z,51.71
2018-08-03T15:26:58.467Z,52.89
2018-08-03T15:30:22.926Z,52.95
2018-08-03T15:33:47.354Z,51.93
2018-08-03T15:37:11.787Z,52.33
2018-08-03T15:40:36.306Z,52.08
2018-08-03T15:44:00.847Z,52.80
2018-08-03T15:47:25.387Z,53.13
2018-08-03T15:50:49.770Z,52.45
2018-08-03T15:54:14.169Z,50.58
2018-08-03T15:57:38.558Z,52.01
2018-08-03T16:01:02.956Z,52.55
2018-08-03T16:04:27.386Z,52.38
2018-08-03T16:07:51.783Z,52.31
2018-08-03T16:11:16.180Z,50.88
2018-08-03T16:14:40.630Z,52.31
2018-08-03T16:18:05.747Z,51.20
2018-08-03T16:21:30.126Z,50.36
2018-08-03T16:24:54.583Z,50.27
2018-08-03T16:28:18.983Z,49.20
2018-08-03T16:31:43.439Z,49.56
2018-08-03T16:35:09.027Z,47.23
2018-08-03T16:38:33.433Z,46.23
2018-08-03T16:41:57.878Z,45.96
2018-08-03T16:45:22.384Z,44.84
2018-08-03T16:48:46.787Z,45.29
2018-08-03T16:52:11.242Z,45.52
2018-08-03T16:55:35.638Z,44.54
2018-08-03T16:59:00.123Z,44.06
2018-08-03T17:02:24.528Z,43.68
2018-08-03T17:06:08.750Z,44.01
2018-08-03T17:09:33.227Z,43.09
2018-08-03T17:12:57.641Z,41.91
2018-08-03T17:16:22.093Z,41.71
2018-08-03T17:19:46.487Z,41.47
2018-08-03T17:23:10.925Z,40.96
2018-08-03T17:26:35.359Z,40.55
2018-08-03T17:29:59.819Z,39.79
2018-08-03T17:33:24.812Z,39.55
2018-08-03T17:36:52.614Z,39.43
2018-08-03T17:40:17.600Z,39.33
2018-08-03T17:43:42.074Z,38.88
2018-08-03T17:47:06.481Z,38.53
2018-08-03T17:50:30.905Z,38.36
2018-08-03T17:53:55.400Z,38.14
2018-08-03T17:57:19.949Z,37.53
2018-08-03T18:00:44.558Z,37.53
2018-08-03T18:04:09.050Z,37.04
2018-08-03T18:07:33.585Z,36.77
2018-08-03T18:10:58.788Z,36.53
2018-08-03T18:14:23.206Z,36.41
2018-08-03T18:17:47.324Z,35.82
2018-08-03T18:21:11.736Z,35.65
2018-08-03T18:24:36.465Z,35.54
2018-08-03T18:28:01.136Z,35.17
2018-08-03T18:31:25.628Z,35.08
2018-08-03T18:34:50.068Z,35.03
2018-08-03T18:38:14.518Z,35.03
2018-08-03T18:41:39.157Z,34.85
2018-08-03T18:45:03.709Z,34.73
2018-08-03T18:48:28.330Z,34.57
2018-08-03T18:51:52.875Z,34.36
2018-08-03T18:55:17.364Z,34.26
2018-08-03T18:58:41.810Z,34.18
2018-08-03T19:02:06.461Z,34.05
2018-08-03T19:05:30.892Z,33.82
2018-08-03T19:08:55.327Z,33.71
2018-08-03T19:12:19.771Z,33.82
2018-08-03T19:15:44.249Z,33.65
2018-08-03T19:19:08.667Z,33.21
2018-08-03T19:22:33.089Z,33.22
2018-08-03T19:25:57.578Z,33.30
2018-08-03T19:29:22.966Z,33.12
2018-08-03T19:32:48.388Z,33.09
2018-08-03T19:36:13.456Z,33.08
2018-08-03T19:39:39.668Z,33.04
2018-08-03T19:43:04.273Z,32.92
2018-08-03T19:46:29.363Z,32.89
2018-08-03T19:49:55.512Z,32.73
2018-08-03T19:53:21.265Z,32.80
2018-08-03T19:56:46.030Z,32.79
2018-08-03T20:00:13.783Z,32.68
2018-08-03T20:03:39.759Z,32.53
2018-08-03T20:07:04.435Z,32.48
2018-08-03T20:10:30.685Z,32.44
2018-08-03T20:13:55.188Z,32.27
2018-08-03T20:17:19.699Z,32.10
2018-08-03T20:20:45.567Z,32.13
2018-08-03T20:24:11.188Z,32.11
2018-08-03T20:27:37.934Z,32.17
2018-08-03T20:31:04.095Z,32.20
2018-08-03T20:34:29.558Z,32.08
2018-08-03T20:37:53.995Z,32.00
2018-08-03T20:41:19.574Z,31.86
2018-08-03T20:44:45.107Z,31.93
2018-08-03T20:48:10.068Z,31.72
2018-08-03T20:51:35.443Z,31.63
2018-08-03T20:55:01.196Z,31.46
2018-08-03T20:58:28.575Z,31.50
2018-08-03T21:01:56.043Z,31.47
2018-08-03T21:05:21.947Z,31.46
2018-08-03T21:08:47.403Z,31.51
2018-08-03T21:12:12.706Z,31.48
2018-08-03T21:15:39.604Z,31.39
2018-08-03T21:19:04.866Z,31.53
2018-08-03T21:22:29.325Z,31.49
2018-08-03T21:25:53.752Z,31.52
2018-08-03T21:29:18.177Z,31.41
2018-08-03T21:32:42.705Z,31.60
2018-08-03T21:36:07.239Z,31.73
2018-08-03T21:39:31.635Z,31.61
2018-08-03T21:42:56.026Z,31.60
2018-08-03T21:46:20.472Z,31.69
2018-08-03T21:49:44.923Z,31.58
2018-08-03T21:53:09.364Z,31.41
2018-08-03T21:56:34.437Z,31.52
2018-08-03T21:59:59.006Z,31.34
2018-08-03T22:03:24.758Z,31.39
2018-08-03T22:06:55.390Z,31.29
2018-08-03T22:10:24.906Z,31.22
2018-08-03T22:13:49.378Z,31.06
2018-08-03T22:17:13.823Z,31.03
2018-08-03T22:20:38.307Z,31.03
2018-08-03T22:24:02.753Z,31.02
2018-08-03T22:27:27.227Z,31.02
2018-08-03T22:30:52.325Z,30.91
2018-08-03T22:34:16.768Z,30.90
2018-08-03T22:37:41.198Z,30.85
2018-08-03T22:41:09.497Z,30.80
2018-08-03T22:44:37.600Z,30.76
2018-08-03T22:48:02.077Z,30.74
2018-08-03T22:51:28.617Z,30.55
2018-08-03T22:55:02.765Z,30.52
2018-08-03T22:58:27.588Z,30.34
2018-08-03T23:01:52.009Z,30.26
2018-08-03T23:05:16.750Z,30.39
2018-08-03T23:08:41.209Z,30.22
2018-08-03T23:12:07.871Z,30.17
2018-08-03T23:15:32.301Z,30.15
2018-08-03T23:18:56.700Z,30.05
2018-08-03T23:22:22.344Z,30.17
2018-08-03T23:25:46.923Z,30.15
2018-08-03T23:29:13.065Z,30.23
2018-08-03T23:32:40.034Z,30.22
2018-08-03T23:36:04.686Z,30.22
2018-08-03T23:39:29.189Z,30.18
2018-08-03T23:42:57.314Z,30.21
2018-08-03T23:46:21.756Z,30.24
2018-08-03T23:49:46.289Z,30.12
2018-08-03T23:53:10.760Z,30.07
2018-08-03T23:56:35.208Z,30.25
2018-08-03T23:59:59.616Z,30.12
